createdAt,value
2022-12-03T00:01:59.524Z,2.13
2022-12-03T00:04:26.074Z,2.13
2022-12-03T00:06:52.780Z,2.12
2022-12-03T00:09:19.604Z,2.12
2022-12-03T00:11:46.333Z,2.12
2022-12-03T00:14:13.166Z,2.13
2022-12-03T00:16:39.861Z,2.10
2022-12-03T00:19:07.826Z,2.09
2022-12-03T00:21:34.878Z,2.10
2022-12-03T00:24:01.552Z,2.10
2022-12-03T00:26:28.112Z,2.09
2022-12-03T00:28:54.963Z,2.10
2022-12-03T00:31:23.665Z,2.10
2022-12-03T00:33:52.286Z,2.12
2022-12-03T00:36:19.666Z,2.10
2022-12-03T00:38:46.298Z,2.10
2022-12-03T00:41:13.171Z,2.09
2022-12-03T00:43:39.672Z,2.08
2022-12-03T00:46:06.322Z,2.08
2022-12-03T00:48:32.940Z,2.07
2022-12-03T00:50:59.551Z,2.08
2022-12-03T00:53:26.231Z,2.05
2022-12-03T00:55:52.767Z,2.05
2022-12-03T00:58:19.427Z,2.05
2022-12-03T01:00:45.947Z,2.04
2022-12-03T01:03:12.530Z,2.02
2022-12-03T01:05:39.088Z,2.00
2022-12-03T01:08:05.964Z,2.00
2022-12-03T01:10:32.628Z,1.99
2022-12-03T01:12:59.202Z,2.00
2022-12-03T01:15:25.818Z,2.00
2022-12-03T01:17:54.341Z,2.00
2022-12-03T01:20:21.419Z,2.00
2022-12-03T01:22:48.035Z,1.99
2022-12-03T01:25:14.745Z,1.99
2022-12-03T01:27:41.566Z,1.99
2022-12-03T01:30:08.594Z,1.98
2022-12-03T01:32:35.131Z,1.99
2022-12-03T01:35:01.752Z,1.99
2022-12-03T01:37:28.430Z,1.99
2022-12-03T01:39:55.333Z,1.99
2022-12-03T01:42:25.933Z,1.98
2022-12-03T01:44:55.009Z,2.00
2022-12-03T01:47:27.458Z,2.00
2022-12-03T01:49:56.673Z,2.02
2022-12-03T01:52:28.929Z,2.01
2022-12-03T01:54:58.494Z,1.99
2022-12-03T01:57:28.550Z,2.00
2022-12-03T01:59:57.661Z,2.00
2022-12-03T02:02:28.261Z,2.02
2022-12-03T02:04:55.887Z,2.00
2022-12-03T02:07:34.773Z,2.00
2022-12-03T02:10:03.752Z,2.00
2022-12-03T02:12:33.052Z,2.02
2022-12-03T02:15:00.752Z,2.01
2022-12-03T02:17:28.338Z,2.04
2022-12-03T02:19:56.277Z,2.04
2022-12-03T02:22:55.146Z,2.04
2022-12-03T02:25:25.995Z,2.03
2022-12-03T02:27:54.965Z,2.05
2022-12-03T02:30:24.598Z,2.05
2022-12-03T02:32:52.723Z,2.05
2022-12-03T02:35:22.382Z,2.05
2022-12-03T02:37:52.943Z,2.07
2022-12-03T02:40:22.843Z,2.06
2022-12-03T02:42:53.588Z,2.07
2022-12-03T02:45:20.010Z,2.06
2022-12-03T02:48:11.594Z,2.07
2022-12-03T02:50:42.401Z,2.07
2022-12-03T02:53:14.322Z,2.09
2022-12-03T02:55:41.612Z,2.10
2022-12-03T02:58:08.909Z,2.09
2022-12-03T03:00:36.549Z,2.10
2022-12-03T03:03:04.780Z,2.10
2022-12-03T03:05:32.951Z,2.11
2022-12-03T03:08:00.701Z,2.11
2022-12-03T03:10:29.153Z,2.12
2022-12-03T03:12:56.400Z,2.12
2022-12-03T03:15:24.338Z,2.13
2022-12-03T03:17:51.174Z,2.12
2022-12-03T03:20:19.032Z,2.13
2022-12-03T03:22:45.576Z,2.14
2022-12-03T03:25:20.616Z,2.14
2022-12-03T03:27:47.291Z,2.15
2022-12-03T03:30:14.481Z,2.15
2022-12-03T03:32:43.114Z,2.14
2022-12-03T03:35:11.916Z,2.14
2022-12-03T03:37:39.258Z,2.14
2022-12-03T03:40:07.116Z,2.14
2022-12-03T03:42:33.975Z,2.15
2022-12-03T03:45:00.915Z,2.16
2022-12-03T03:47:27.521Z,2.17
2022-12-03T03:49:54.328Z,2.16
2022-12-03T03:52:21.198Z,2.16
2022-12-03T03:54:48.131Z,2.18
2022-12-03T03:57:14.684Z,2.18
2022-12-03T03:59:41.728Z,2.17
2022-12-03T04:02:18.892Z,2.18
2022-12-03T04:04:45.792Z,2.18
2022-12-03T04:07:12.521Z,2.19
2022-12-03T04:09:38.984Z,2.18
2022-12-03T04:12:24.592Z,2.20
2022-12-03T04:14:51.519Z,2.20
2022-12-03T04:17:18.429Z,2.20
2022-12-03T04:19:44.955Z,2.21
2022-12-03T04:22:29.699Z,2.21
2022-12-03T04:25:16.184Z,2.21
2022-12-03T04:28:01.349Z,2.22
2022-12-03T04:30:27.948Z,2.23
2022-12-03T04:33:13.032Z,2.22
2022-12-03T04:35:42.493Z,2.22
2022-12-03T04:38:10.083Z,2.23
2022-12-03T04:40:55.914Z,2.23
2022-12-03T04:43:22.595Z,2.22
2022-12-03T04:45:49.612Z,2.23
2022-12-03T04:48:16.165Z,2.24
2022-12-03T04:50:43.256Z,2.23
2022-12-03T04:53:09.860Z,2.23
2022-12-03T04:55:36.413Z,2.26
2022-12-03T04:58:02.944Z,2.25
2022-12-03T05:00:32.245Z,2.26
2022-12-03T05:02:58.911Z,2.25
2022-12-03T05:05:25.608Z,2.26
2022-12-03T05:07:52.155Z,2.26
2022-12-03T05:10:18.895Z,2.25
2022-12-03T05:12:45.380Z,2.26
2022-12-03T05:15:11.974Z,2.25
2022-12-03T05:17:38.453Z,2.25
2022-12-03T05:20:24.091Z,2.26
2022-12-03T05:22:50.586Z,2.25
2022-12-03T05:25:17.229Z,2.25
2022-12-03T05:27:43.676Z,2.24
2022-12-03T05:30:10.490Z,2.25
2022-12-03T05:32:36.994Z,2.24
2022-12-03T05:35:03.760Z,2.23
2022-12-03T05:37:30.323Z,2.23
2022-12-03T05:39:56.836Z,2.23
2022-12-03T05:42:41.894Z,2.23
2022-12-03T05:45:08.880Z,2.22
2022-12-03T05:47:35.446Z,2.21
2022-12-03T05:50:01.963Z,2.21
2022-12-03T05:52:28.762Z,2.21
2022-12-03T05:54:55.635Z,2.20
2022-12-03T05:57:22.312Z,2.20
2022-12-03T05:59:49.185Z,2.21
2022-12-03T06:02:15.867Z,2.20
2022-12-03T06:04:42.593Z,2.19
2022-12-03T06:07:13.771Z,2.19
2022-12-03T06:09:40.815Z,2.20
2022-12-03T06:12:08.910Z,2.19
2022-12-03T06:14:35.908Z,2.18
2022-12-03T06:17:02.799Z,2.18
2022-12-03T06:19:29.361Z,2.18
2022-12-03T06:21:56.025Z,2.18
2022-12-03T06:24:22.534Z,2.19
2022-12-03T06:26:49.135Z,2.18
2022-12-03T06:29:15.721Z,2.19
2022-12-03T06:31:42.256Z,2.17
2022-12-03T06:34:08.913Z,2.18
2022-12-03T06:36:35.415Z,2.16
2022-12-03T06:39:02.299Z,2.18
2022-12-03T06:41:28.815Z,2.17
2022-12-03T06:43:55.263Z,2.17
2022-12-03T06:46:21.773Z,2.16
2022-12-03T06:48:48.415Z,2.16
2022-12-03T06:51:14.963Z,2.17
2022-12-03T06:53:41.429Z,2.17
2022-12-03T06:56:08.058Z,2.18
2022-12-03T06:58:34.818Z,2.19
2022-12-03T07:01:01.405Z,2.18
2022-12-03T07:03:28.009Z,2.18
2022-12-03T07:05:54.519Z,2.18
2022-12-03T07:08:20.992Z,2.17
2022-12-03T07:10:47.578Z,2.16
2022-12-03T07:13:14.063Z,2.16
2022-12-03T07:15:40.862Z,2.15
2022-12-03T07:18:07.466Z,2.13
2022-12-03T07:20:33.953Z,2.13
2022-12-03T07:23:00.438Z,2.13
2022-12-03T07:25:27.173Z,2.12
2022-12-03T07:27:53.621Z,2.12
2022-12-03T07:30:20.377Z,2.10
2022-12-03T07:32:46.900Z,2.10
2022-12-03T07:35:13.482Z,2.11
2022-12-03T07:37:40.139Z,2.15
2022-12-03T07:40:07.365Z,2.18
2022-12-03T07:42:33.942Z,2.23
2022-12-03T07:45:00.768Z,2.30
2022-12-03T07:47:27.342Z,2.37
2022-12-03T07:49:53.889Z,2.43
2022-12-03T07:52:20.564Z,2.51
2022-12-03T07:54:47.244Z,2.59
2022-12-03T07:57:13.818Z,2.66
2022-12-03T07:59:40.329Z,2.72
2022-12-03T08:02:06.929Z,2.78
2022-12-03T08:04:33.563Z,2.85
2022-12-03T08:07:00.309Z,2.92
2022-12-03T08:09:26.981Z,2.98
2022-12-03T08:11:53.956Z,3.01
2022-12-03T08:14:20.925Z,3.07
2022-12-03T08:16:48.095Z,3.13
2022-12-03T08:19:16.505Z,3.16
2022-12-03T08:21:43.765Z,3.21
2022-12-03T08:24:21.081Z,3.23
2022-12-03T08:26:49.665Z,3.26
2022-12-03T08:29:18.796Z,3.27
2022-12-03T08:31:55.180Z,3.30
2022-12-03T08:34:26.767Z,3.35
2022-12-03T08:37:01.575Z,3.34
2022-12-03T08:39:40.594Z,3.33
2022-12-03T08:42:28.984Z,3.31
2022-12-03T08:44:56.168Z,3.36
2022-12-03T08:47:24.385Z,3.36
2022-12-03T08:50:03.385Z,3.38
2022-12-03T08:52:34.751Z,3.36
2022-12-03T08:55:29.427Z,3.38
2022-12-03T08:57:55.975Z,3.37
2022-12-03T09:00:24.559Z,3.40
2022-12-03T09:02:54.290Z,3.44
2022-12-03T09:05:23.584Z,3.40
2022-12-03T09:07:50.283Z,3.42
2022-12-03T09:10:20.681Z,3.46
2022-12-03T09:12:47.613Z,3.48
2022-12-03T09:15:14.224Z,3.44
2022-12-03T09:17:40.884Z,3.47
2022-12-03T09:20:09.224Z,3.48
2022-12-03T09:22:35.957Z,3.48
2022-12-03T09:25:02.719Z,3.49
2022-12-03T09:27:29.538Z,3.52
2022-12-03T09:29:57.744Z,3.52
2022-12-03T09:32:24.607Z,3.51
2022-12-03T09:34:51.794Z,3.53
2022-12-03T09:37:18.730Z,3.50
2022-12-03T09:39:45.314Z,3.48
2022-12-03T09:42:12.311Z,3.50
2022-12-03T09:44:39.244Z,3.45
2022-12-03T09:47:06.993Z,3.46
2022-12-03T09:49:37.646Z,3.40
2022-12-03T09:52:06.376Z,3.43
2022-12-03T09:54:36.475Z,3.38
2022-12-03T09:57:04.411Z,3.39
2022-12-03T09:59:33.455Z,3.36
2022-12-03T10:02:00.653Z,3.37
2022-12-03T10:04:28.581Z,3.35
2022-12-03T10:07:06.209Z,3.37
2022-12-03T10:09:35.145Z,3.41
2022-12-03T10:12:01.901Z,3.43
2022-12-03T10:14:28.995Z,3.42
2022-12-03T10:16:55.993Z,3.44
2022-12-03T10:19:26.107Z,3.50
2022-12-03T10:21:52.915Z,3.52
2022-12-03T10:24:24.163Z,3.52
2022-12-03T10:26:52.964Z,3.53
2022-12-03T10:29:29.913Z,3.51
2022-12-03T10:32:10.517Z,3.48
2022-12-03T10:34:39.703Z,3.48
2022-12-03T10:37:14.302Z,3.51
2022-12-03T10:40:09.364Z,3.48
2022-12-03T10:42:39.829Z,3.44
2022-12-03T10:45:19.339Z,3.52
2022-12-03T10:48:06.402Z,3.53
2022-12-03T10:50:34.877Z,3.53
2022-12-03T10:53:02.104Z,3.50
2022-12-03T10:55:34.309Z,3.49
2022-12-03T10:58:02.307Z,3.52
2022-12-03T11:00:29.177Z,3.55
2022-12-03T11:02:57.119Z,3.58
2022-12-03T11:05:27.567Z,3.54
2022-12-03T11:07:54.762Z,3.50
2022-12-03T11:10:21.913Z,3.52
2022-12-03T11:13:33.079Z,3.49
2022-12-03T11:16:05.307Z,3.50
2022-12-03T11:18:34.731Z,3.48
2022-12-03T11:21:02.522Z,3.47
2022-12-03T11:23:44.245Z,3.42
2022-12-03T11:26:18.404Z,3.41
2022-12-03T11:28:45.719Z,3.44
2022-12-03T11:31:42.023Z,3.47
2022-12-03T11:34:20.735Z,3.54
2022-12-03T11:37:12.069Z,3.50
2022-12-03T11:39:44.785Z,3.51
2022-12-03T11:42:29.869Z,3.52
2022-12-03T11:45:05.765Z,3.50
2022-12-03T11:47:41.825Z,3.49
2022-12-03T11:50:21.557Z,3.46
2022-12-03T11:52:54.521Z,3.47
2022-12-03T11:55:34.781Z,3.47
2022-12-03T11:58:22.530Z,3.48
2022-12-03T12:00:53.842Z,3.52
2022-12-03T12:03:52.901Z,3.49
2022-12-03T12:06:21.209Z,3.50
2022-12-03T12:09:00.078Z,3.47
2022-12-03T12:11:34.578Z,3.45
2022-12-03T12:14:19.265Z,3.44
2022-12-03T12:16:50.988Z,3.47
2022-12-03T12:19:33.879Z,3.45
2022-12-03T12:22:28.185Z,3.41
2022-12-03T12:25:04.038Z,3.39
2022-12-03T12:27:49.492Z,3.35
2022-12-03T12:30:19.179Z,3.34
2022-12-03T12:32:48.412Z,3.37
2022-12-03T12:35:26.496Z,3.38
2022-12-03T12:38:03.283Z,3.35
2022-12-03T12:40:34.883Z,3.31
2022-12-03T12:43:11.775Z,3.34
2022-12-03T12:45:43.569Z,3.31
2022-12-03T12:48:10.207Z,3.30
2022-12-03T12:50:38.573Z,3.29
2022-12-03T12:53:12.776Z,3.31
2022-12-03T12:55:40.128Z,3.26
2022-12-03T12:58:17.354Z,3.28
2022-12-03T13:00:50.980Z,3.28
2022-12-03T13:03:19.363Z,3.22
2022-12-03T13:05:49.267Z,3.18
2022-12-03T13:08:23.504Z,3.23
2022-12-03T13:10:52.597Z,3.26
2022-12-03T13:13:21.712Z,3.28
2022-12-03T13:15:50.639Z,3.30
2022-12-03T13:18:39.898Z,3.32
2022-12-03T13:21:32.874Z,3.35
2022-12-03T13:24:00.986Z,3.35
2022-12-03T13:26:39.421Z,3.35
2022-12-03T13:29:16.549Z,3.38
2022-12-03T13:31:51.184Z,3.37
2022-12-03T13:34:23.416Z,3.32
2022-12-03T13:36:57.633Z,3.35
2022-12-03T13:39:30.697Z,3.34
2022-12-03T13:42:21.977Z,3.34
2022-12-03T13:44:50.057Z,3.36
2022-12-03T13:47:22.752Z,3.25
2022-12-03T13:49:57.936Z,3.24
2022-12-03T13:52:29.064Z,3.26
2022-12-03T13:54:57.145Z,3.23
2022-12-03T13:57:23.953Z,3.19
2022-12-03T13:59:50.760Z,3.18
2022-12-03T14:02:17.998Z,3.18
2022-12-03T14:04:46.466Z,3.16
2022-12-03T14:07:13.142Z,3.17
2022-12-03T14:09:39.733Z,3.15
2022-12-03T14:12:25.339Z,3.10
2022-12-03T14:14:52.036Z,3.10
2022-12-03T14:17:18.562Z,3.06
2022-12-03T14:19:45.247Z,3.07
2022-12-03T14:22:12.025Z,3.04
2022-12-03T14:24:40.201Z,3.05
2022-12-03T14:27:06.820Z,3.03
2022-12-03T14:29:33.576Z,2.98
2022-12-03T14:32:00.155Z,2.97
2022-12-03T14:34:27.256Z,2.93
2022-12-03T14:36:53.784Z,2.91
2022-12-03T14:39:23.359Z,2.89
2022-12-03T14:42:08.515Z,2.96
2022-12-03T14:44:37.181Z,2.99
2022-12-03T14:47:03.811Z,3.03
2022-12-03T14:49:30.379Z,3.04
2022-12-03T14:51:56.925Z,3.04
2022-12-03T14:54:23.854Z,3.06
2022-12-03T14:56:50.515Z,2.97
2022-12-03T14:59:17.366Z,3.02
2022-12-03T15:01:43.960Z,3.04
2022-12-03T15:04:10.768Z,3.06
2022-12-03T15:06:37.280Z,3.04
2022-12-03T15:09:04.512Z,2.94
2022-12-03T15:11:31.260Z,2.94
2022-12-03T15:13:58.159Z,2.93
2022-12-03T15:16:25.067Z,2.95
2022-12-03T15:18:52.086Z,2.93
2022-12-03T15:21:18.610Z,2.95
2022-12-03T15:23:45.261Z,2.94
2022-12-03T15:26:11.762Z,2.96
2022-12-03T15:28:38.416Z,2.97
2022-12-03T15:31:05.186Z,2.95
2022-12-03T15:33:31.835Z,2.92
2022-12-03T15:35:58.429Z,2.92
2022-12-03T15:38:24.983Z,2.88
2022-12-03T15:40:51.584Z,2.87
2022-12-03T15:43:18.229Z,2.87
2022-12-03T15:45:45.012Z,2.88
2022-12-03T15:48:13.445Z,2.80
2022-12-03T15:50:40.593Z,2.82
2022-12-03T15:53:07.335Z,2.83
2022-12-03T15:55:33.842Z,2.83
2022-12-03T15:58:00.428Z,2.83
2022-12-03T16:00:26.936Z,2.81
2022-12-03T16:02:53.634Z,2.82
2022-12-03T16:05:20.253Z,2.79
2022-12-03T16:07:46.878Z,2.77
2022-12-03T16:10:13.722Z,2.76
2022-12-03T16:12:40.417Z,2.77
2022-12-03T16:15:07.281Z,2.77
2022-12-03T16:17:33.972Z,2.79
2022-12-03T16:20:00.672Z,2.73
2022-12-03T16:22:27.184Z,2.75
2022-12-03T16:24:53.791Z,2.76
2022-12-03T16:27:25.297Z,2.75
2022-12-03T16:29:52.660Z,2.75
2022-12-03T16:32:19.605Z,2.77
2022-12-03T16:34:46.263Z,2.77
2022-12-03T16:37:12.842Z,2.77
2022-12-03T16:39:39.491Z,2.77
2022-12-03T16:42:10.203Z,2.73
2022-12-03T16:44:58.928Z,2.70
2022-12-03T16:47:30.618Z,2.70
2022-12-03T16:50:00.495Z,2.71
2022-12-03T16:52:29.567Z,2.70
2022-12-03T16:54:56.506Z,2.70
2022-12-03T16:57:23.041Z,2.71
2022-12-03T16:59:49.888Z,2.72
2022-12-03T17:02:16.600Z,2.74
2022-12-03T17:04:43.227Z,2.75
2022-12-03T17:07:09.922Z,2.70
2022-12-03T17:09:36.486Z,2.66
2022-12-03T17:12:03.117Z,2.66
2022-12-03T17:14:33.289Z,2.66
2022-12-03T17:17:00.175Z,2.66
2022-12-03T17:19:26.756Z,2.63
2022-12-03T17:21:54.235Z,2.63
2022-12-03T17:24:21.428Z,2.65
2022-12-03T17:26:48.007Z,2.65
2022-12-03T17:29:14.641Z,2.62
2022-12-03T17:31:42.477Z,2.66
2022-12-03T17:34:09.528Z,2.68
2022-12-03T17:36:36.203Z,2.66
2022-12-03T17:39:02.906Z,2.64
2022-12-03T17:41:29.437Z,2.66
2022-12-03T17:43:56.072Z,2.67
2022-12-03T17:46:22.642Z,2.67
2022-12-03T17:48:49.302Z,2.62
2022-12-03T17:51:16.005Z,2.60
2022-12-03T17:53:42.644Z,2.58
2022-12-03T17:56:09.585Z,2.61
2022-12-03T17:58:36.072Z,2.60
2022-12-03T18:01:03.436Z,2.60
2022-12-03T18:03:30.849Z,2.59
2022-12-03T18:05:57.418Z,2.58
2022-12-03T18:08:24.202Z,2.61
2022-12-03T18:10:50.889Z,2.57
2022-12-03T18:13:17.563Z,2.53
2022-12-03T18:15:44.110Z,2.56
2022-12-03T18:18:10.945Z,2.56
2022-12-03T18:20:38.054Z,2.57
2022-12-03T18:23:04.991Z,2.55
2022-12-03T18:25:31.714Z,2.52
2022-12-03T18:27:58.460Z,2.54
2022-12-03T18:30:25.233Z,2.53
2022-12-03T18:32:51.909Z,2.54
2022-12-03T18:35:18.540Z,2.58
2022-12-03T18:37:45.155Z,2.59
2022-12-03T18:40:22.478Z,2.57
2022-12-03T18:42:49.211Z,2.59
2022-12-03T18:45:16.426Z,2.60
2022-12-03T18:47:43.715Z,2.59
2022-12-03T18:52:52.681Z,2.57
2022-12-03T18:55:21.822Z,2.57
2022-12-03T18:57:48.403Z,2.53
2022-12-03T19:00:15.376Z,2.49
2022-12-03T19:05:29.090Z,2.52
2022-12-03T19:07:56.616Z,2.51
2022-12-03T19:10:23.928Z,2.51
2022-12-03T19:12:50.580Z,2.53
2022-12-03T19:15:17.569Z,2.52
2022-12-03T19:17:49.474Z,2.51
2022-12-03T19:20:16.146Z,2.53
2022-12-03T19:22:42.724Z,2.52
2022-12-03T19:25:09.506Z,2.54
2022-12-03T19:27:36.215Z,2.52
2022-12-03T19:30:03.095Z,2.51
2022-12-03T19:32:29.631Z,2.51
2022-12-03T19:34:57.252Z,2.48
2022-12-03T19:37:23.801Z,2.42
2022-12-03T19:39:53.509Z,2.43
2022-12-03T19:42:20.529Z,2.43
2022-12-03T19:44:47.108Z,2.45
2022-12-03T19:47:13.857Z,2.44
2022-12-03T19:49:40.449Z,2.43
2022-12-03T19:52:06.992Z,2.43
2022-12-03T19:54:33.696Z,2.41
2022-12-03T19:57:00.486Z,2.37
2022-12-03T19:59:27.134Z,2.39
2022-12-03T20:01:53.726Z,2.40
2022-12-03T20:04:20.481Z,2.40
2022-12-03T20:06:47.732Z,2.40
2022-12-03T20:09:17.903Z,2.40
2022-12-03T20:11:46.070Z,2.40
2022-12-03T20:14:15.614Z,2.33
2022-12-03T20:16:42.883Z,2.34
2022-12-03T20:19:12.473Z,2.34
2022-12-03T20:21:40.248Z,2.32
2022-12-03T20:24:08.363Z,2.34
2022-12-03T20:26:34.876Z,2.34
2022-12-03T20:29:01.800Z,2.35
2022-12-03T20:31:31.237Z,2.37
2022-12-03T20:34:02.928Z,2.39
2022-12-03T20:36:31.052Z,2.38
2022-12-03T20:39:00.286Z,2.38
2022-12-03T20:41:26.874Z,2.37
2022-12-03T20:43:54.466Z,2.34
2022-12-03T20:46:25.878Z,2.34
2022-12-03T20:48:54.277Z,2.32
2022-12-03T20:51:23.537Z,2.32
2022-12-03T20:53:50.343Z,2.36
2022-12-03T20:56:20.301Z,2.34
2022-12-03T20:58:49.005Z,2.34
2022-12-03T21:01:22.263Z,2.36
2022-12-03T21:03:49.647Z,2.33
2022-12-03T21:06:17.298Z,2.27
2022-12-03T21:08:44.858Z,2.18
2022-12-03T21:11:16.041Z,2.10
2022-12-03T21:13:45.427Z,2.02
2022-12-03T21:16:15.849Z,1.93
2022-12-03T21:18:43.424Z,1.87
2022-12-03T21:21:12.204Z,1.79
2022-12-03T21:23:38.911Z,1.71
2022-12-03T21:26:08.434Z,1.67
2022-12-03T21:28:35.773Z,1.61
2022-12-03T21:31:06.173Z,1.54
2022-12-03T21:33:33.518Z,1.47
2022-12-03T21:36:01.116Z,1.40
2022-12-03T21:38:30.265Z,1.37
2022-12-03T21:40:57.524Z,1.31
2022-12-03T21:43:25.259Z,1.27
2022-12-03T21:45:53.984Z,1.24
2022-12-03T21:48:21.062Z,1.19
2022-12-03T21:51:00.650Z,1.14
2022-12-03T21:53:28.180Z,1.10
2022-12-03T21:55:54.858Z,1.07
2022-12-03T21:58:21.455Z,1.04
2022-12-03T22:00:48.065Z,1.02
2022-12-03T22:03:14.779Z,1.00
2022-12-03T22:05:41.367Z,0.98
2022-12-03T22:08:08.109Z,0.96
2022-12-03T22:10:35.434Z,0.92
2022-12-03T22:13:02.264Z,0.90
2022-12-03T22:15:28.808Z,0.87
2022-12-03T22:17:55.345Z,0.84
2022-12-03T22:20:22.261Z,0.82
2022-12-03T22:22:48.833Z,0.79
2022-12-03T22:25:15.864Z,0.78
2022-12-03T22:27:42.599Z,0.75
2022-12-03T22:30:09.534Z,0.75
2022-12-03T22:32:36.114Z,0.73
2022-12-03T22:35:02.851Z,0.72
2022-12-03T22:37:32.390Z,0.70
2022-12-03T22:39:59.106Z,0.68
2022-12-03T22:42:25.689Z,0.68
2022-12-03T22:44:52.160Z,0.69
2022-12-03T22:47:18.707Z,0.67
2022-12-03T22:49:45.212Z,0.67
2022-12-03T22:52:11.731Z,0.67
2022-12-03T22:54:38.317Z,0.66
2022-12-03T22:57:04.767Z,0.66
2022-12-03T22:59:31.406Z,0.66
2022-12-03T23:01:58.064Z,0.66
2022-12-03T23:04:24.674Z,0.66
2022-12-03T23:06:51.103Z,0.64
2022-12-03T23:09:17.880Z,0.63
2022-12-03T23:11:45.597Z,0.63
2022-12-03T23:14:13.343Z,0.63
2022-12-03T23:16:40.658Z,0.63
2022-12-03T23:19:07.148Z,0.63
2022-12-03T23:21:34.740Z,0.62
2022-12-03T23:24:02.873Z,0.58
2022-12-03T23:26:29.673Z,0.58
2022-12-03T23:28:56.721Z,0.58
2022-12-03T23:31:29.874Z,0.58
2022-12-03T23:33:57.568Z,0.58
2022-12-03T23:36:26.206Z,0.58
2022-12-03T23:38:53.604Z,0.59
2022-12-03T23:41:22.584Z,0.58
2022-12-03T23:43:49.586Z,0.58
2022-12-03T23:46:20.154Z,0.58
2022-12-03T23:48:46.863Z,0.58
2022-12-03T23:51:20.287Z,0.59
2022-12-03T23:53:47.555Z,0.57
2022-12-03T23:56:17.483Z,0.58
2022-12-03T23:58:44.621Z,0.57
